createdAt,value
2019-04-29T00:01:10.960Z,23.97
2019-04-29T00:03:39.612Z,21.53
2019-04-29T00:06:08.253Z,21.40
2019-04-29T00:08:36.750Z,19.00
2019-04-29T00:11:05.513Z,19.80
2019-04-29T00:13:34.080Z,18.43
2019-04-29T00:16:04.378Z,19.43
2019-04-29T00:18:46.725Z,18.23
2019-04-29T00:21:15.783Z,19.20
2019-04-29T00:23:44.353Z,19.57
2019-04-29T00:26:13.078Z,19.27
2019-04-29T00:28:41.574Z,19.37
2019-04-29T00:31:10.161Z,19.67
2019-04-29T00:33:38.655Z,22.43
2019-04-29T00:36:07.243Z,22.60
2019-04-29T00:38:37.451Z,22.73
2019-04-29T00:41:07.817Z,20.70
2019-04-29T00:43:41.049Z,22.50
2019-04-29T00:46:10.722Z,22.00
2019-04-29T00:48:39.346Z,21.77
2019-04-29T00:51:07.997Z,21.83
2019-04-29T00:53:36.657Z,20.30
2019-04-29T00:56:06.112Z,22.07
2019-04-29T00:58:34.679Z,23.97
2019-04-29T01:01:04.833Z,22.10
2019-04-29T01:03:33.393Z,22.00
2019-04-29T01:06:01.916Z,21.63
2019-04-29T01:08:30.554Z,22.57
2019-04-29T01:10:59.064Z,21.70
2019-04-29T01:13:27.644Z,21.40
2019-04-29T01:15:56.225Z,21.17
2019-04-29T01:18:24.799Z,21.00
2019-04-29T01:20:53.362Z,22.03
2019-04-29T01:23:22.021Z,22.23
2019-04-29T01:25:52.315Z,22.53
2019-04-29T01:28:28.423Z,22.37
2019-04-29T01:31:01.341Z,23.90
2019-04-29T01:33:30.669Z,23.70
2019-04-29T01:36:15.999Z,25.63
2019-04-29T01:38:44.570Z,23.97
2019-04-29T01:41:14.797Z,23.80
2019-04-29T01:44:02.806Z,25.17
2019-04-29T01:46:31.416Z,23.73
2019-04-29T01:48:59.983Z,25.87
2019-04-29T01:51:28.566Z,26.50
2019-04-29T01:53:57.129Z,26.43
2019-04-29T01:56:25.714Z,24.63
2019-04-29T01:58:54.348Z,26.37
2019-04-29T02:01:22.940Z,25.03
2019-04-29T02:03:51.502Z,24.13
2019-04-29T02:06:20.074Z,24.10
2019-04-29T02:08:49.925Z,23.30
2019-04-29T02:11:18.510Z,22.30
2019-04-29T02:13:47.074Z,23.43
2019-04-29T02:16:15.730Z,23.07
2019-04-29T02:18:44.304Z,23.77
2019-04-29T02:21:12.801Z,25.07
2019-04-29T02:23:43.082Z,24.53
2019-04-29T02:26:11.595Z,26.33
2019-04-29T02:28:40.190Z,24.20
2019-04-29T02:31:26.627Z,23.77
2019-04-29T02:33:55.260Z,23.60
2019-04-29T02:36:23.886Z,24.03
2019-04-29T02:38:56.750Z,23.00
2019-04-29T02:41:41.676Z,24.57
2019-04-29T02:44:11.596Z,22.87
2019-04-29T02:46:40.150Z,23.83
2019-04-29T02:49:08.662Z,22.27
2019-04-29T02:51:44.867Z,21.93
2019-04-29T02:54:13.502Z,23.33
2019-04-29T02:56:43.709Z,21.60
2019-04-29T02:59:25.683Z,22.90
2019-04-29T03:02:11.131Z,23.47
2019-04-29T03:04:57.461Z,23.17
2019-04-29T03:07:26.042Z,23.20
2019-04-29T03:09:54.619Z,23.73
2019-04-29T03:12:23.360Z,23.23
2019-04-29T03:14:51.938Z,21.40
2019-04-29T03:17:20.795Z,20.63
2019-04-29T03:20:06.999Z,21.97
2019-04-29T03:22:36.222Z,21.60
2019-04-29T03:25:06.023Z,21.30
2019-04-29T03:27:34.684Z,22.57
2019-04-29T03:30:03.319Z,21.90
2019-04-29T03:32:31.907Z,23.73
2019-04-29T03:35:00.480Z,21.53
2019-04-29T03:37:29.078Z,21.57
2019-04-29T03:39:57.720Z,22.53
2019-04-29T03:42:26.409Z,21.47
2019-04-29T03:44:54.961Z,21.47
2019-04-29T03:47:23.467Z,22.60
2019-04-29T03:49:52.034Z,20.23
2019-04-29T03:52:20.669Z,20.30
2019-04-29T03:54:49.265Z,23.13
2019-04-29T03:57:18.823Z,20.97
2019-04-29T03:59:47.390Z,20.80
2019-04-29T04:02:23.505Z,21.33
2019-04-29T04:05:09.729Z,21.40
2019-04-29T04:07:39.939Z,21.37
2019-04-29T04:10:09.030Z,22.40
2019-04-29T04:12:37.541Z,21.57
2019-04-29T04:15:07.170Z,23.67
2019-04-29T04:17:40.362Z,22.53
2019-04-29T04:20:09.338Z,21.53
2019-04-29T04:22:49.774Z,21.87
2019-04-29T04:25:21.407Z,20.47
2019-04-29T04:27:50.070Z,21.27
2019-04-29T04:30:19.088Z,21.13
2019-04-29T04:32:47.736Z,20.83
2019-04-29T04:35:16.449Z,19.90
2019-04-29T04:37:45.015Z,20.73
2019-04-29T04:40:16.964Z,22.50
2019-04-29T04:42:45.621Z,21.13
2019-04-29T04:45:14.333Z,20.50
2019-04-29T04:47:42.894Z,21.03
2019-04-29T04:50:11.623Z,22.13
2019-04-29T04:52:40.183Z,23.33
2019-04-29T04:55:09.303Z,23.37
2019-04-29T04:57:37.866Z,23.23
2019-04-29T05:00:09.538Z,22.13
2019-04-29T05:02:38.101Z,23.07
2019-04-29T05:05:06.788Z,23.77
2019-04-29T05:07:35.353Z,24.27
2019-04-29T05:10:04.510Z,23.70
2019-04-29T05:12:32.997Z,23.23
2019-04-29T05:15:01.518Z,22.47
2019-04-29T05:17:30.082Z,23.20
2019-04-29T05:19:58.682Z,23.43
2019-04-29T05:22:27.254Z,22.90
2019-04-29T05:24:55.762Z,24.00
2019-04-29T05:27:24.342Z,26.07
2019-04-29T05:29:52.926Z,23.87
2019-04-29T05:32:21.504Z,24.50
2019-04-29T05:34:54.794Z,23.40
2019-04-29T05:37:23.579Z,23.33
2019-04-29T05:39:52.165Z,24.87
2019-04-29T05:42:20.727Z,24.80
2019-04-29T05:45:02.792Z,24.67
2019-04-29T05:47:32.934Z,26.23
2019-04-29T05:50:19.343Z,25.37
2019-04-29T05:52:49.879Z,24.40
2019-04-29T05:55:18.533Z,25.83
2019-04-29T05:57:47.101Z,24.27
2019-04-29T06:00:18.704Z,25.87
2019-04-29T06:02:46.539Z,23.53
2019-04-29T06:05:15.262Z,22.60
2019-04-29T06:07:43.752Z,23.00
2019-04-29T06:10:12.574Z,23.03
2019-04-29T06:12:44.256Z,22.67
2019-04-29T06:15:11.505Z,23.17
2019-04-29T06:17:44.287Z,24.40
2019-04-29T06:20:13.044Z,21.87
2019-04-29T06:22:41.875Z,20.90
2019-04-29T06:25:10.975Z,19.63
2019-04-29T06:27:39.555Z,18.33
2019-04-29T06:30:08.481Z,16.10
2019-04-29T06:32:37.064Z,17.53
2019-04-29T06:35:10.613Z,17.17
2019-04-29T06:37:39.016Z,17.20
2019-04-29T06:40:07.740Z,18.03
2019-04-29T06:42:36.313Z,18.63
2019-04-29T06:45:06.539Z,17.90
2019-04-29T06:47:35.135Z,18.30
2019-04-29T06:50:06.605Z,18.27
2019-04-29T06:52:35.123Z,19.77
2019-04-29T06:55:05.016Z,19.33
2019-04-29T06:57:33.511Z,17.73
2019-04-29T07:00:02.027Z,16.90
2019-04-29T07:02:30.590Z,16.73
2019-04-29T07:04:59.102Z,16.70
2019-04-29T07:07:27.605Z,16.20
2019-04-29T07:09:56.984Z,16.63
2019-04-29T07:12:25.790Z,15.17
2019-04-29T07:14:54.387Z,15.87
2019-04-29T07:17:22.954Z,17.23
2019-04-29T07:19:51.552Z,15.67
2019-04-29T07:22:20.866Z,14.93
2019-04-29T07:24:50.363Z,13.53
2019-04-29T07:27:18.934Z,14.07
2019-04-29T07:29:47.542Z,13.73
2019-04-29T07:32:16.119Z,14.07
2019-04-29T07:34:44.707Z,13.47
2019-04-29T07:37:13.283Z,14.10
2019-04-29T07:39:41.853Z,13.40
2019-04-29T07:42:10.437Z,13.33
2019-04-29T07:44:56.289Z,12.93
2019-04-29T07:47:29.095Z,14.17
2019-04-29T07:49:55.063Z,13.60
2019-04-29T07:52:23.600Z,13.53
2019-04-29T07:54:55.236Z,14.03
2019-04-29T07:57:22.415Z,12.23
2019-04-29T07:59:50.978Z,12.80
2019-04-29T08:02:19.574Z,13.73
2019-04-29T08:04:48.204Z,13.10
2019-04-29T08:07:17.898Z,12.83
2019-04-29T08:09:46.706Z,13.03
2019-04-29T08:12:15.364Z,13.33
2019-04-29T08:14:44.370Z,13.13
2019-04-29T08:17:12.956Z,12.87
2019-04-29T08:19:41.527Z,13.20
2019-04-29T08:22:10.126Z,13.07
2019-04-29T08:24:38.712Z,12.70
2019-04-29T08:27:07.306Z,12.53
2019-04-29T08:29:37.344Z,12.87
2019-04-29T08:32:06.061Z,13.30
2019-04-29T08:34:34.550Z,13.83
2019-04-29T08:37:03.071Z,13.33
2019-04-29T08:39:31.645Z,12.93
2019-04-29T08:42:03.751Z,11.80
2019-04-29T08:44:54.733Z,12.93
2019-04-29T08:47:30.556Z,13.07
2019-04-29T08:49:53.650Z,12.53
2019-04-29T08:52:22.262Z,12.27
2019-04-29T08:54:55.136Z,13.00
2019-04-29T08:57:21.066Z,12.87
2019-04-29T08:59:49.571Z,11.67
2019-04-29T09:02:33.221Z,11.00
2019-04-29T09:04:53.644Z,12.37
2019-04-29T09:07:22.185Z,9.93
2019-04-29T09:09:48.834Z,11.57
2019-04-29T09:12:19.377Z,11.10
2019-04-29T09:14:47.776Z,11.50
2019-04-29T09:17:20.415Z,10.43
2019-04-29T09:19:46.573Z,9.87
2019-04-29T09:22:16.798Z,10.90
2019-04-29T09:25:03.076Z,10.30
2019-04-29T09:27:31.750Z,10.77
2019-04-29T09:30:00.581Z,9.67
2019-04-29T09:32:29.398Z,9.63
2019-04-29T09:34:59.515Z,9.60
2019-04-29T09:37:28.115Z,9.13
2019-04-29T09:39:57.046Z,8.73
2019-04-29T09:42:31.006Z,8.63
2019-04-29T09:45:03.817Z,7.93
2019-04-29T09:47:32.578Z,8.37
2019-04-29T09:50:01.139Z,8.40
2019-04-29T09:52:29.722Z,8.47
2019-04-29T09:54:59.498Z,7.70
2019-04-29T09:57:28.519Z,7.43
2019-04-29T10:00:05.244Z,7.17
2019-04-29T10:02:42.105Z,7.60
2019-04-29T10:05:15.213Z,6.53
2019-04-29T10:07:43.796Z,7.80
2019-04-29T10:10:12.793Z,7.07
2019-04-29T10:12:41.301Z,6.80
2019-04-29T10:15:11.129Z,6.90
2019-04-29T10:17:41.354Z,6.93
2019-04-29T10:20:11.802Z,7.07
2019-04-29T10:22:40.382Z,7.23
2019-04-29T10:25:10.158Z,7.83
2019-04-29T10:27:38.742Z,7.93
2019-04-29T10:30:08.035Z,7.20
2019-04-29T10:32:41.894Z,7.07
2019-04-29T10:35:08.769Z,6.97
2019-04-29T10:37:39.425Z,6.73
2019-04-29T10:40:24.799Z,6.73
2019-04-29T10:43:15.572Z,7.10
2019-04-29T10:45:47.965Z,6.30
2019-04-29T10:48:18.194Z,6.53
2019-04-29T10:50:52.158Z,6.10
2019-04-29T10:53:18.835Z,6.70
2019-04-29T10:55:47.460Z,5.80
2019-04-29T10:58:16.452Z,6.27
2019-04-29T11:01:08.686Z,6.13
2019-04-29T11:03:37.401Z,6.27
2019-04-29T11:06:06.145Z,5.77
2019-04-29T11:08:38.220Z,6.67
2019-04-29T11:11:21.908Z,5.73
2019-04-29T11:13:46.863Z,6.60
2019-04-29T11:16:09.910Z,5.50
2019-04-29T11:18:39.818Z,6.03
2019-04-29T11:21:09.039Z,5.37
2019-04-29T11:23:54.885Z,5.97
2019-04-29T11:26:30.967Z,6.03
2019-04-29T11:29:00.533Z,6.70
2019-04-29T11:31:29.161Z,6.10
2019-04-29T11:34:05.587Z,5.37
2019-04-29T11:36:34.969Z,5.43
2019-04-29T11:39:09.157Z,5.13
2019-04-29T11:41:36.826Z,5.70
2019-04-29T11:44:05.477Z,5.13
2019-04-29T11:46:33.983Z,5.17
2019-04-29T11:49:04.278Z,5.00
2019-04-29T11:51:48.548Z,5.00
2019-04-29T11:54:08.370Z,5.20
2019-04-29T11:56:35.325Z,4.53
2019-04-29T11:59:10.061Z,4.87
2019-04-29T12:01:51.622Z,4.23
2019-04-29T12:04:33.447Z,4.77
2019-04-29T12:06:59.562Z,4.80
2019-04-29T12:09:30.661Z,4.53
2019-04-29T12:11:58.726Z,4.83
2019-04-29T12:14:39.052Z,4.40
2019-04-29T12:17:12.221Z,4.43
2019-04-29T12:19:52.071Z,4.00
2019-04-29T12:22:30.307Z,4.07
2019-04-29T12:24:51.009Z,4.30
2019-04-29T12:27:21.428Z,4.67
2019-04-29T12:29:54.333Z,4.73
2019-04-29T12:32:27.849Z,4.60
2019-04-29T12:35:04.103Z,4.90
2019-04-29T12:37:40.344Z,5.20
2019-04-29T12:40:22.876Z,4.80
2019-04-29T12:42:55.056Z,4.73
2019-04-29T12:45:27.811Z,4.90
2019-04-29T12:47:57.027Z,4.90
2019-04-29T12:50:25.663Z,4.67
2019-04-29T12:52:54.171Z,4.73
2019-04-29T12:55:43.162Z,4.77
2019-04-29T12:57:54.599Z,6.40
2019-04-29T13:00:30.359Z,5.40
2019-04-29T13:03:01.805Z,5.20
2019-04-29T13:05:33.314Z,4.67
2019-04-29T13:08:03.542Z,5.40
2019-04-29T13:10:37.723Z,5.07
2019-04-29T13:13:06.674Z,5.10
2019-04-29T13:15:43.938Z,4.80
2019-04-29T13:18:23.433Z,4.57
2019-04-29T13:20:52.148Z,5.10
2019-04-29T13:23:33.188Z,5.13
2019-04-29T13:25:55.941Z,4.90
2019-04-29T13:28:30.390Z,4.87
2019-04-29T13:30:56.838Z,4.80
2019-04-29T13:33:25.602Z,4.83
2019-04-29T13:35:54.321Z,5.37
2019-04-29T13:38:22.955Z,4.90
2019-04-29T13:41:11.451Z,5.90
2019-04-29T13:43:25.817Z,6.33
2019-04-29T13:45:53.691Z,6.00
2019-04-29T13:48:55.454Z,5.87
2019-04-29T13:51:11.991Z,6.43
2019-04-29T13:53:40.640Z,6.07
2019-04-29T13:56:13.872Z,6.13
2019-04-29T13:58:39.553Z,6.40
2019-04-29T14:01:31.116Z,7.47
2019-04-29T14:03:53.340Z,7.63
2019-04-29T14:06:22.003Z,7.83
2019-04-29T14:08:50.582Z,8.23
2019-04-29T14:11:21.879Z,7.73
2019-04-29T14:13:50.644Z,8.07
2019-04-29T14:16:19.458Z,8.67
2019-04-29T14:18:49.767Z,8.23
2019-04-29T14:21:18.291Z,9.27
2019-04-29T14:23:46.861Z,9.77
2019-04-29T14:26:15.462Z,9.63
2019-04-29T14:28:44.021Z,10.13
2019-04-29T14:31:12.545Z,10.33
2019-04-29T14:33:42.766Z,10.87
2019-04-29T14:36:11.359Z,10.67
2019-04-29T14:38:40.739Z,11.90
2019-04-29T14:41:14.230Z,11.10
2019-04-29T14:43:50.621Z,10.70
2019-04-29T14:46:23.623Z,11.80
2019-04-29T14:49:09.954Z,11.53
2019-04-29T14:51:38.653Z,11.83
2019-04-29T14:54:08.728Z,12.40
2019-04-29T14:56:39.018Z,12.77
2019-04-29T14:59:07.775Z,13.57
2019-04-29T15:01:40.917Z,13.90
2019-04-29T15:04:18.485Z,13.83
2019-04-29T15:06:41.792Z,14.07
2019-04-29T15:09:16.823Z,14.27
2019-04-29T15:11:51.957Z,13.67
2019-04-29T15:14:37.381Z,14.80
2019-04-29T15:17:08.234Z,16.67
2019-04-29T15:19:55.749Z,14.83
2019-04-29T15:22:26.055Z,17.63
2019-04-29T15:24:54.625Z,17.00
2019-04-29T15:27:23.153Z,16.13
2019-04-29T15:29:53.242Z,17.03
2019-04-29T15:32:23.614Z,15.90
2019-04-29T15:34:52.077Z,17.87
2019-04-29T15:37:20.666Z,16.27
2019-04-29T15:39:49.239Z,16.77
2019-04-29T15:42:17.940Z,17.73
2019-04-29T15:44:46.604Z,18.03
2019-04-29T15:47:15.390Z,18.73
2019-04-29T15:49:43.989Z,18.63
2019-04-29T15:52:15.899Z,19.33
2019-04-29T15:54:45.987Z,19.60
2019-04-29T15:57:15.548Z,20.07
2019-04-29T15:59:49.159Z,21.03
2019-04-29T16:02:14.339Z,21.87
2019-04-29T16:04:47.415Z,22.10
2019-04-29T16:07:26.801Z,22.27
2019-04-29T16:10:06.172Z,22.20
2019-04-29T16:12:55.241Z,22.07
2019-04-29T16:15:24.503Z,24.03
2019-04-29T16:17:57.659Z,23.90
2019-04-29T16:20:26.206Z,23.27
2019-04-29T16:23:00.672Z,22.73
2019-04-29T16:25:24.959Z,20.40
2019-04-29T16:27:53.612Z,22.40
2019-04-29T16:30:25.923Z,21.23
2019-04-29T16:32:53.008Z,19.87
2019-04-29T16:35:23.673Z,19.90
2019-04-29T16:37:51.882Z,19.53
2019-04-29T16:40:20.610Z,19.10
2019-04-29T16:43:02.510Z,17.73
2019-04-29T16:45:38.758Z,17.73
2019-04-29T16:48:07.418Z,17.23
2019-04-29T16:50:36.062Z,17.37
2019-04-29T16:53:05.345Z,17.43
2019-04-29T16:55:35.988Z,17.40
2019-04-29T16:58:07.656Z,18.43
2019-04-29T17:00:36.376Z,17.47
2019-04-29T17:03:05.211Z,18.77
2019-04-29T17:05:33.776Z,20.17
2019-04-29T17:08:02.514Z,20.57
2019-04-29T17:10:44.621Z,19.77
2019-04-29T17:13:16.686Z,20.37
2019-04-29T17:15:51.589Z,21.77
2019-04-29T17:18:14.915Z,21.67
2019-04-29T17:20:43.533Z,20.50
2019-04-29T17:23:12.121Z,22.43
2019-04-29T17:25:40.699Z,22.27
2019-04-29T17:28:24.147Z,21.03
2019-04-29T17:30:57.776Z,20.90
2019-04-29T17:33:48.988Z,19.90
2019-04-29T17:36:10.319Z,21.57
2019-04-29T17:38:38.907Z,21.27
2019-04-29T17:41:07.568Z,19.90
2019-04-29T17:43:53.159Z,20.50
2019-04-29T17:46:28.809Z,20.07
2019-04-29T17:49:16.835Z,19.80
2019-04-29T17:51:45.902Z,19.43
2019-04-29T17:54:18.949Z,19.87
2019-04-29T17:56:49.122Z,19.13
2019-04-29T17:59:29.657Z,19.73
2019-04-29T18:01:59.461Z,19.10
2019-04-29T18:04:38.536Z,17.73
2019-04-29T18:07:15.253Z,16.43
2019-04-29T18:09:47.497Z,16.53
2019-04-29T18:12:20.366Z,15.30
2019-04-29T18:14:49.027Z,16.00
2019-04-29T18:17:27.218Z,16.03
2019-04-29T18:19:50.769Z,15.70
2019-04-29T18:22:36.762Z,15.17
2019-04-29T18:25:14.171Z,14.60
2019-04-29T18:27:45.076Z,15.27
2019-04-29T18:30:18.035Z,16.43
2019-04-29T18:32:46.592Z,16.20
2019-04-29T18:35:16.956Z,15.83
2019-04-29T18:37:45.712Z,14.37
2019-04-29T18:40:16.061Z,14.37
2019-04-29T18:42:48.455Z,15.07
2019-04-29T18:45:15.700Z,15.00
2019-04-29T18:47:44.365Z,14.10
2019-04-29T18:50:13.210Z,14.93
2019-04-29T18:52:41.914Z,14.33
2019-04-29T18:55:10.645Z,15.50
2019-04-29T18:57:39.328Z,15.23
2019-04-29T19:00:12.024Z,15.00
2019-04-29T19:02:45.371Z,16.27
2019-04-29T19:05:15.040Z,15.67
2019-04-29T19:07:54.344Z,16.43
2019-04-29T19:10:18.319Z,16.60
2019-04-29T19:12:48.420Z,17.43
2019-04-29T19:15:17.668Z,17.40
2019-04-29T19:17:53.035Z,16.07
2019-04-29T19:20:16.712Z,17.23
2019-04-29T19:22:47.311Z,17.00
2019-04-29T19:25:16.158Z,16.83
2019-04-29T19:27:45.462Z,16.93
2019-04-29T19:30:20.736Z,16.17
2019-04-29T19:32:46.743Z,15.63
2019-04-29T19:35:16.982Z,16.53
2019-04-29T19:37:45.453Z,15.67
2019-04-29T19:40:15.042Z,15.10
2019-04-29T19:42:46.894Z,17.20
2019-04-29T19:45:15.514Z,14.73
2019-04-29T19:47:47.054Z,14.57
2019-04-29T19:50:18.298Z,15.27
2019-04-29T19:52:45.390Z,15.77
2019-04-29T19:55:14.010Z,16.43
2019-04-29T19:57:48.096Z,15.00
2019-04-29T20:00:13.800Z,16.50
2019-04-29T20:02:48.170Z,15.60
2019-04-29T20:05:16.450Z,15.10
2019-04-29T20:07:49.508Z,16.00
2019-04-29T20:10:16.301Z,16.77
2019-04-29T20:12:52.804Z,16.43
2019-04-29T20:15:16.775Z,16.57
2019-04-29T20:17:49.267Z,18.53
2019-04-29T20:20:21.986Z,17.03
2019-04-29T20:22:51.355Z,17.03
2019-04-29T20:25:29.259Z,16.23
2019-04-29T20:28:02.669Z,17.00
2019-04-29T20:30:21.237Z,17.07
2019-04-29T20:32:50.046Z,17.43
2019-04-29T20:35:18.885Z,18.03
2019-04-29T20:37:47.969Z,17.90
2019-04-29T20:40:18.097Z,22.67
2019-04-29T20:42:49.039Z,19.23
2019-04-29T20:45:20.175Z,19.17
2019-04-29T20:47:47.434Z,19.23
2019-04-29T20:50:16.201Z,18.37
2019-04-29T20:52:46.591Z,18.70
2019-04-29T20:55:15.827Z,19.77
2019-04-29T20:57:47.874Z,19.27
2019-04-29T21:00:15.114Z,18.97
2019-04-29T21:02:45.280Z,19.77
2019-04-29T21:05:19.854Z,19.83
2019-04-29T21:07:44.293Z,21.87
2019-04-29T21:10:13.761Z,21.07
2019-04-29T21:12:45.687Z,22.97
2019-04-29T21:15:31.894Z,19.27
2019-04-29T21:18:00.566Z,21.73
2019-04-29T21:20:29.129Z,21.57
2019-04-29T21:23:00.947Z,21.17
2019-04-29T21:25:29.363Z,21.60
2019-04-29T21:28:02.083Z,20.50
2019-04-29T21:30:35.574Z,22.33
2019-04-29T21:32:58.564Z,24.13
2019-04-29T21:35:49.526Z,23.13
2019-04-29T21:38:22.342Z,23.27
2019-04-29T21:40:56.378Z,24.73
2019-04-29T21:43:26.602Z,25.43
2019-04-29T21:45:55.642Z,25.37
2019-04-29T21:48:32.937Z,24.40
2019-04-29T21:50:54.573Z,25.70
2019-04-29T21:53:24.800Z,26.17
2019-04-29T21:55:55.321Z,25.73
2019-04-29T21:58:23.605Z,25.60
2019-04-29T22:00:55.893Z,25.63
2019-04-29T22:03:26.565Z,26.40
2019-04-29T22:05:54.973Z,26.23
2019-04-29T22:08:27.501Z,26.13
2019-04-29T22:10:58.302Z,26.57
2019-04-29T22:13:24.871Z,25.43
2019-04-29T22:15:53.633Z,26.00
2019-04-29T22:18:22.245Z,25.77
2019-04-29T22:20:50.749Z,28.50
2019-04-29T22:23:20.376Z,27.43
2019-04-29T22:25:49.153Z,28.30
2019-04-29T22:28:19.877Z,27.10
2019-04-29T22:30:49.807Z,27.53
2019-04-29T22:33:19.773Z,28.70
2019-04-29T22:35:48.586Z,27.93
2019-04-29T22:38:18.788Z,28.00
2019-04-29T22:40:48.606Z,27.63
2019-04-29T22:43:36.113Z,28.73
2019-04-29T22:46:09.312Z,27.90
2019-04-29T22:48:35.185Z,29.53
2019-04-29T22:51:05.771Z,26.47
2019-04-29T22:53:35.869Z,27.17
2019-04-29T22:56:04.446Z,28.43
2019-04-29T22:58:34.957Z,28.57
2019-04-29T23:01:06.707Z,27.13
2019-04-29T23:03:37.488Z,28.77
2019-04-29T23:06:08.273Z,27.37
2019-04-29T23:08:38.118Z,27.87
2019-04-29T23:11:05.446Z,27.07
2019-04-29T23:13:35.791Z,28.30
2019-04-29T23:16:04.322Z,28.47
2019-04-29T23:18:41.063Z,28.23
2019-04-29T23:21:20.878Z,29.13
2019-04-29T23:23:51.109Z,28.17
2019-04-29T23:26:19.597Z,28.70
2019-04-29T23:28:48.114Z,27.67
2019-04-29T23:31:16.826Z,28.47
2019-04-29T23:33:45.750Z,28.60
2019-04-29T23:36:15.959Z,28.37
2019-04-29T23:38:44.676Z,29.07
2019-04-29T23:41:13.181Z,28.63
2019-04-29T23:43:41.766Z,30.07
2019-04-29T23:46:10.268Z,28.97
2019-04-29T23:48:39.743Z,28.57
2019-04-29T23:51:08.533Z,30.23
2019-04-29T23:53:37.134Z,29.73
2019-04-29T23:56:09.747Z,29.27
2019-04-29T23:58:47.116Z,28.63
